Terminal Aerodrome Forecast
Issued by NWS Austin/San Antonio, TX

Home | Current Version | Previous Version | Text Only | Print | Product List | Glossary On
Versions: 1 2 3 4 5 6 7 8 9 10 11 12 13 14 15 16 17 18 19 20 21 22 23 24 25 26 27 28 29 30
000
FTUS44 KEWX 261140
TAFSAT
TAF
KSAT 261140Z 2612/2718 17005KT P6SM OVC009
     FM261500 17010KT P6SM OVC015
     FM261700 17010KT P6SM BKN040
     FM270500 31005KT P6SM BKN010 PROB30 2708/2712 4SM TSRA OVC010CB
     FM271500 30005KT P6SM SCT100=

USA.gov is the U.S. government's official web portal to all federal, state and local government web resources and services.